createdAt,value
2023-04-19T00:08:55.301Z,101147.06
2023-04-19T00:19:00.570Z,101143.19
2023-04-19T00:29:04.314Z,101141.91
2023-04-19T00:39:09.292Z,101135.25
2023-04-19T00:49:12.978Z,101133.78
2023-04-19T00:59:20.415Z,101122.97
2023-04-19T01:09:24.302Z,101116.72
2023-04-19T01:19:29.580Z,101114.94
2023-04-19T01:29:34.682Z,101106.59
2023-04-19T01:39:38.384Z,101097.94
2023-04-19T01:49:43.460Z,101095.59
2023-04-19T01:59:47.233Z,101082.38
2023-04-19T02:09:52.485Z,101080.44
2023-04-19T02:19:56.222Z,101071.03
2023-04-19T02:30:01.211Z,101062.84
2023-04-19T02:40:06.185Z,101068.00
2023-04-19T02:50:11.891Z,101053.03
2023-04-19T03:00:17.108Z,101055.31
2023-04-19T03:10:22.504Z,101049.00
2023-04-19T03:20:26.712Z,101042.38
2023-04-19T03:30:31.850Z,101044.16
2023-04-19T03:40:37.681Z,101031.06
2023-04-19T03:50:42.704Z,101006.84
2023-04-19T04:00:46.641Z,101009.56
2023-04-19T04:10:55.372Z,101012.56
2023-04-19T04:20:58.991Z,101020.78
2023-04-19T04:31:04.064Z,101023.13
2023-04-19T04:41:08.850Z,101009.56
2023-04-19T04:51:13.865Z,101013.66
2023-04-19T05:01:19.434Z,101006.22
2023-04-19T05:11:24.509Z,101011.38
2023-04-19T05:21:28.210Z,101015.00
2023-04-19T05:31:33.524Z,101010.19
2023-04-19T05:41:37.257Z,101009.38
2023-04-19T05:51:42.245Z,101017.28
2023-04-19T06:01:46.258Z,100994.03
2023-04-19T06:11:52.127Z,100995.03
2023-04-19T06:21:55.909Z,101007.22
2023-04-19T06:32:00.941Z,101008.56
2023-04-19T06:42:05.573Z,101008.78
2023-04-19T06:52:10.590Z,100991.91
2023-04-19T07:02:14.510Z,100996.28
2023-04-19T07:12:20.559Z,100996.06
2023-04-19T07:22:24.315Z,100974.84
2023-04-19T07:32:29.495Z,100969.81
2023-04-19T07:42:33.183Z,100968.88
2023-04-19T07:52:38.170Z,100961.13
2023-04-19T08:02:44.931Z,100940.47
2023-04-19T08:23:10.503Z,100947.13
2023-04-19T08:33:23.475Z,100925.25
2023-04-19T08:43:30.543Z,100916.63
2023-04-19T08:53:40.323Z,100912.88
2023-04-19T09:04:00.245Z,100904.97
2023-04-19T09:14:13.284Z,100886.03
2023-04-19T09:24:17.079Z,100877.47
2023-04-19T09:34:24.258Z,100878.81
2023-04-19T09:54:36.537Z,100866.13
2023-04-19T10:05:02.583Z,100873.03
2023-04-19T10:15:12.725Z,100872.28
2023-04-19T10:25:21.506Z,100846.03
2023-04-19T10:35:30.128Z,100838.56
2023-04-19T10:45:34.617Z,100825.19
2023-04-19T10:55:51.929Z,100810.66
2023-04-19T11:06:17.611Z,100812.41
2023-04-19T11:16:31.183Z,100793.72
2023-04-19T11:26:44.635Z,100783.22
2023-04-19T11:36:52.083Z,100742.91
2023-04-19T11:47:00.567Z,100748.41
2023-04-19T11:57:07.268Z,100719.19
2023-04-19T12:07:11.955Z,100724.91
2023-04-19T12:17:17.032Z,100702.47
2023-04-19T12:27:25.572Z,100706.25
2023-04-19T12:37:30.606Z,100694.81
2023-04-19T12:47:34.463Z,100683.22
2023-04-19T12:57:39.548Z,100669.28
2023-04-19T13:07:43.344Z,100666.81
2023-04-19T13:17:48.482Z,100656.13
2023-04-19T13:27:52.704Z,100649.88
2023-04-19T13:37:57.882Z,100628.19
2023-04-19T13:48:01.685Z,100601.31
2023-04-19T13:58:07.028Z,100601.53
2023-04-19T14:08:11.097Z,100591.41
2023-04-19T14:18:16.300Z,100587.97
2023-04-19T14:28:20.554Z,100598.16
2023-04-19T14:38:25.981Z,100577.72
2023-04-19T14:48:29.885Z,100588.97
2023-04-19T14:58:35.061Z,100577.66
2023-04-19T15:08:38.733Z,100578.69
2023-04-19T15:18:44.047Z,100572.81
2023-04-19T15:28:47.771Z,100572.91
2023-04-19T15:38:52.898Z,100567.84
2023-04-19T15:48:56.647Z,100572.41
2023-04-19T15:59:02.037Z,100572.28
2023-04-19T16:09:06.484Z,100571.38
2023-04-19T16:19:11.661Z,100572.81
2023-04-19T16:29:15.796Z,100591.41
2023-04-19T16:39:21.229Z,100595.13
2023-04-19T16:49:25.502Z,100587.13
2023-04-19T16:59:30.819Z,100590.94
2023-04-19T17:09:34.905Z,100599.03
2023-04-19T17:19:39.976Z,100595.00
2023-04-19T17:29:43.718Z,100595.75
2023-04-19T17:39:48.775Z,100588.53
2023-04-19T17:49:52.556Z,100603.97
2023-04-19T17:59:57.572Z,100589.25
2023-04-19T18:10:01.334Z,100589.75
2023-04-19T18:20:08.626Z,100609.22
2023-04-19T18:30:13.285Z,100610.56
2023-04-19T18:40:19.043Z,100621.16
2023-04-19T18:50:22.776Z,100626.31
2023-04-19T19:00:28.087Z,100622.47
2023-04-19T19:11:06.238Z,100637.69
2023-04-19T19:21:01.517Z,100643.19
2023-04-19T19:31:05.535Z,100643.13
2023-04-19T19:41:49.558Z,100644.38
2023-04-19T20:01:42.670Z,100640.81
2023-04-19T20:11:46.550Z,100639.97
2023-04-19T20:21:51.639Z,100634.81
2023-04-19T20:31:55.430Z,100632.13
2023-04-19T20:42:01.428Z,100635.09
2023-04-19T20:52:06.454Z,100640.19
2023-04-19T21:02:12.126Z,100637.81
2023-04-19T21:12:16.251Z,100643.31
2023-04-19T21:22:21.418Z,100626.72
2023-04-19T21:32:26.513Z,100628.22
2023-04-19T21:42:31.533Z,100623.28
2023-04-19T21:52:35.471Z,100607.22
2023-04-19T22:02:41.224Z,100593.94
2023-04-19T22:12:57.287Z,100591.75
2023-04-19T22:23:02.792Z,100586.25
2023-04-19T22:33:06.561Z,100583.03
2023-04-19T22:43:11.661Z,100575.03
2023-04-19T22:53:15.429Z,100558.78
2023-04-19T23:03:20.854Z,100545.94
2023-04-19T23:13:24.721Z,100537.31
2023-04-19T23:23:29.754Z,100523.66
2023-04-19T23:33:34.322Z,100527.69
2023-04-19T23:43:39.580Z,100516.88
2023-04-19T23:53:43.197Z,100500.91
